Time;durP1;ratioP1;P1;durP2;ratioP2;P2;SDS_P1;SDS_P2;PMS_P1;PMS_P2;Temp;Humidity;BMP_temperature;BMP_pressure;BME280_temperature;BME280_humidity;BME280_pressure;Samples;Min_cycle;Max_cycle;Signal;HPM_P1;HPM_P2
2023/01/12 00:02:15;;;;;;;9.87;3.03;;;11.50;99.90;;;;;;5045422;28;20228;-33
2023/01/12 00:04:50;;;;;;;8.37;1.97;;;11.50;99.90;;;;;;5049516;28;20228;-34
2023/01/12 00:07:19;;;;;;;14.37;2.70;;;11.50;99.90;;;;;;5049274;28;20751;-33
2023/01/12 00:09:47;;;;;;;12.63;2.67;;;11.40;99.90;;;;;;5049134;28;20286;-33
2023/01/12 00:12:14;;;;;;;12.93;2.63;;;11.40;99.90;;;;;;5048842;28;20198;-33
2023/01/12 00:14:43;;;;;;;14.13;2.33;;;11.40;99.90;;;;;;5048785;28;20419;-33
2023/01/12 00:17:13;;;;;;;12.30;2.73;;;11.40;99.90;;;;;;5048962;28;20745;-33
2023/01/12 00:19:50;;;;;;;11.00;2.30;;;11.50;99.90;;;;;;5049151;28;20200;-33
2023/01/12 00:22:18;;;;;;;14.77;3.53;;;11.50;99.90;;;;;;5048753;28;20216;-33
2023/01/12 00:24:48;;;;;;;11.77;2.17;;;11.40;99.90;;;;;;5048818;28;20228;-33
2023/01/12 00:27:18;;;;;;;12.63;2.43;;;11.40;99.90;;;;;;5049028;28;20250;-33
2023/01/12 00:29:49;;;;;;;12.70;2.70;;;11.40;99.90;;;;;;5049152;28;20327;-34
2023/01/12 00:32:18;;;;;;;13.77;2.53;;;11.50;99.90;;;;;;5048932;28;20200;-33
2023/01/12 00:34:48;;;;;;;13.30;2.60;;;11.50;99.90;;;;;;5048688;28;20224;-33
2023/01/12 00:37:18;;;;;;;18.63;2.80;;;11.40;99.90;;;;;;5048912;28;20294;-33
2023/01/12 00:39:50;;;;;;;13.83;3.17;;;11.40;99.90;;;;;;5048579;28;20211;-33
2023/01/12 00:45:21;;;;;;;12.57;2.40;;;11.40;99.90;;;;;;5048432;28;20317;-33
2023/01/12 00:47:50;;;;;;;17.00;2.90;;;11.40;99.90;;;;;;5048410;28;20253;-33
2023/01/12 00:50:17;;;;;;;17.57;3.17;;;11.40;99.90;;;;;;5048378;28;20845;-33
2023/01/12 00:52:50;;;;;;;12.53;2.87;;;11.40;99.90;;;;;;5048573;28;20646;-33
2023/01/12 00:55:21;;;;;;;15.50;2.70;;;11.40;99.90;;;;;;5048479;28;20212;-33
2023/01/12 00:57:48;;;;;;;15.20;3.10;;;11.40;99.90;;;;;;5048734;28;20602;-33
2023/01/12 01:00:16;;;;;;;13.27;3.07;;;11.50;99.90;;;;;;5048118;28;20717;-33
2023/01/12 01:02:48;;;;;;;15.20;2.90;;;11.50;99.90;;;;;;5048320;28;20196;-33
2023/01/12 01:05:16;;;;;;;15.13;3.47;;;11.50;99.90;;;;;;5048024;28;20278;-34
2023/01/12 01:07:45;;;;;;;17.23;2.90;;;11.50;99.90;;;;;;5048181;28;20200;-33
2023/01/12 01:10:14;;;;;;;15.63;3.03;;;11.50;99.90;;;;;;5047972;28;20224;-33
2023/01/12 01:12:41;;;;;;;11.43;2.93;;;11.50;99.90;;;;;;5047926;28;20207;-33
2023/01/12 01:15:09;;;;;;;14.43;3.23;;;11.50;99.90;;;;;;5047829;28;20236;-34
2023/01/12 01:17:36;;;;;;;13.13;2.80;;;11.50;99.90;;;;;;5047583;28;20196;-33
2023/01/12 01:20:04;;;;;;;16.60;3.20;;;11.50;99.90;;;;;;5047764;28;20278;-33
2023/01/12 01:22:31;;;;;;;14.60;2.70;;;11.60;99.90;;;;;;5063268;28;20196;-34
2023/01/12 01:24:58;;;;;;;18.37;3.33;;;11.60;99.90;;;;;;5047945;28;20251;-33
2023/01/12 01:27:27;;;;;;;17.27;3.20;;;11.60;99.90;;;;;;5047736;28;20636;-33
2023/01/12 01:29:57;;;;;;;17.30;3.93;;;11.60;99.90;;;;;;5047678;28;20258;-33
2023/01/12 01:32:24;;;;;;;18.13;3.77;;;11.60;99.90;;;;;;5047873;28;20306;-33
2023/01/12 01:34:53;;;;;;;17.30;3.10;;;11.60;99.90;;;;;;5063088;28;20197;-33
2023/01/12 01:37:23;;;;;;;11.63;2.40;;;11.60;99.90;;;;;;5046174;28;20212;-33
2023/01/12 01:39:53;;;;;;;11.03;2.80;;;11.60;99.90;;;;;;5047258;28;20585;-33
2023/01/12 01:42:29;;;;;;;17.83;3.13;;;11.60;99.90;;;;;;5047006;28;20690;-33
2023/01/12 01:44:58;;;;;;;14.47;2.57;;;11.60;99.90;;;;;;5047345;28;20341;-34
2023/01/12 01:47:33;;;;;;;12.73;3.20;;;11.70;99.90;;;;;;5047177;28;20212;-33
2023/01/12 01:50:04;;;;;;;14.40;3.23;;;11.70;99.90;;;;;;5047585;28;20231;-33
2023/01/12 01:52:39;;;;;;;11.77;3.00;;;11.70;99.90;;;;;;5045575;28;20306;-34
2023/01/12 01:55:16;;;;;;;13.83;3.30;;;11.70;99.90;;;;;;5045910;28;20294;-33
2023/01/12 01:58:15;;;;;;;18.03;3.00;;;11.60;99.90;;;;;;5047097;28;20229;-33
2023/01/12 02:00:46;;;;;;;11.67;2.63;;;11.70;99.90;;;;;;5062070;28;20211;-33
2023/01/12 02:03:15;;;;;;;16.27;3.37;;;11.60;99.90;;;;;;5050853;28;20242;-33
2023/01/12 02:05:49;;;;;;;12.53;2.63;;;11.70;99.90;;;;;;5063804;28;20318;-33
2023/01/12 02:08:29;;;;;;;12.60;2.93;;;11.70;99.90;;;;;;5048186;28;20273;-34
2023/01/12 02:11:01;;;;;;;16.10;3.07;;;11.60;99.90;;;;;;5047131;28;20204;-33
2023/01/12 02:16:24;;;;;;;12.40;2.37;;;11.70;99.90;;;;;;5046711;28;20207;-33
2023/01/12 02:18:51;;;;;;;13.90;2.93;;;11.70;99.90;;;;;;5052892;28;20243;-34
2023/01/12 02:21:56;;;;;;;18.37;3.97;;;11.70;99.90;;;;;;5052464;28;20711;-34
2023/01/12 02:24:53;;;;;;;13.07;2.83;;;11.70;99.90;;;;;;5045634;28;20235;-33
2023/01/12 02:27:59;;;;;;;16.63;2.70;;;11.70;99.90;;;;;;5046344;28;20216;-33
2023/01/12 02:30:41;;;;;;;13.37;2.60;;;11.70;99.90;;;;;;5043917;28;20200;-33
2023/01/12 02:33:22;;;;;;;17.10;2.43;;;11.70;99.90;;;;;;5043945;28;20215;-33
2023/01/12 02:36:18;;;;;;;11.57;2.80;;;11.70;99.90;;;;;;5046146;28;20265;-34
2023/01/12 02:39:02;;;;;;;12.37;2.33;;;11.70;99.90;;;;;;5046632;28;20204;-33
2023/01/12 02:44:31;;;;;;;12.23;2.30;;;11.70;99.90;;;;;;5046733;28;20322;-33
2023/01/12 02:47:05;;;;;;;12.37;2.80;;;11.70;99.90;;;;;;5046265;28;20307;-33
2023/01/12 02:49:42;;;;;;;10.53;2.50;;;11.70;99.90;;;;;;5046106;28;20204;-34
2023/01/12 02:52:13;;;;;;;8.97;2.10;;;11.70;99.90;;;;;;5045818;28;20721;-33
2023/01/12 02:54:44;;;;;;;13.57;2.83;;;11.70;99.90;;;;;;5046126;28;20261;-33
2023/01/12 02:57:15;;;;;;;14.47;2.47;;;11.70;99.90;;;;;;5044332;28;20295;-33
2023/01/12 02:59:53;;;;;;;12.20;2.70;;;11.70;99.90;;;;;;5045656;28;20254;-33
2023/01/12 03:02:23;;;;;;;13.87;2.53;;;11.70;99.90;;;;;;5045918;28;20300;-33
2023/01/12 03:04:51;;;;;;;11.30;2.47;;;11.80;99.90;;;;;;5045828;28;20281;-34
2023/01/12 03:07:29;;;;;;;13.10;2.83;;;11.80;99.90;;;;;;5045453;28;20292;-32
2023/01/12 03:10:25;;;;;;;12.67;2.73;;;11.80;99.90;;;;;;5045650;28;20287;-32
2023/01/12 03:12:54;;;;;;;12.90;2.83;;;11.80;99.90;;;;;;5043617;28;20212;-33
2023/01/12 03:15:23;;;;;;;12.47;2.53;;;11.70;99.90;;;;;;5044167;28;20234;-33
2023/01/12 03:18:01;;;;;;;12.57;2.27;;;11.70;99.90;;;;;;5045575;28;20200;-32
2023/01/12 03:20:36;;;;;;;14.73;2.90;;;11.80;99.90;;;;;;5045646;28;20690;-30
2023/01/12 03:23:18;;;;;;;15.50;2.97;;;11.80;99.90;;;;;;5045448;28;20230;-30
2023/01/12 03:25:48;;;;;;;11.20;2.60;;;11.80;99.90;;;;;;5045743;28;20220;-30
2023/01/12 03:28:18;;;;;;;14.67;2.90;;;11.80;99.90;;;;;;5043728;28;20295;-29
2023/01/12 03:31:00;;;;;;;15.73;3.27;;;11.70;99.90;;;;;;5045293;28;20253;-29
2023/01/12 03:33:30;;;;;;;11.87;3.00;;;11.70;99.90;;;;;;5043845;28;20295;-30
2023/01/12 03:36:17;;;;;;;15.87;3.17;;;11.70;99.90;;;;;;5045428;28;20204;-30
2023/01/12 03:38:56;;;;;;;11.77;2.93;;;11.80;99.90;;;;;;5049099;28;20248;-29
2023/01/12 03:41:32;;;;;;;13.67;2.80;;;11.70;99.90;;;;;;5049373;28;20204;-30
2023/01/12 03:44:10;;;;;;;15.87;3.13;;;11.70;99.90;;;;;;5049038;28;20200;-30
2023/01/12 03:46:46;;;;;;;13.23;2.30;;;11.70;99.90;;;;;;5049024;28;20229;-30
2023/01/12 03:49:25;;;;;;;13.73;2.90;;;11.70;99.90;;;;;;5048682;28;20208;-30
2023/01/12 03:51:57;;;;;;;16.30;3.03;;;11.70;99.90;;;;;;5049123;28;20347;-30
2023/01/12 03:54:27;;;;;;;13.33;2.73;;;11.70;99.90;;;;;;5048812;28;20265;-29
2023/01/12 03:56:58;;;;;;;15.77;3.30;;;11.70;99.90;;;;;;5049064;28;20283;-30
2023/01/12 03:59:27;;;;;;;15.10;3.43;;;11.60;99.90;;;;;;5049016;28;20645;-30
2023/01/12 04:01:55;;;;;;;15.10;3.17;;;11.60;99.90;;;;;;5048744;28;20215;-30
2023/01/12 04:04:22;;;;;;;10.17;2.43;;;11.60;99.90;;;;;;5048866;28;20719;-29
2023/01/12 04:06:52;;;;;;;14.73;2.83;;;11.60;99.90;;;;;;5047437;28;20227;-29
2023/01/12 04:09:21;;;;;;;12.90;2.83;;;11.60;99.90;;;;;;5048825;28;20302;-29
2023/01/12 04:12:09;;;;;;;17.57;2.83;;;11.70;99.90;;;;;;5048704;28;20250;-30
2023/01/12 04:14:43;;;;;;;13.57;2.70;;;11.60;99.90;;;;;;5048993;28;20211;-30
2023/01/12 04:17:18;;;;;;;12.30;2.90;;;11.60;99.90;;;;;;5048428;28;20206;-30
2023/01/12 04:19:45;;;;;;;14.73;2.63;;;11.60;99.90;;;;;;5048406;28;20741;-30
2023/01/12 04:25:00;;;;;;;15.93;2.83;;;11.60;99.90;;;;;;5048250;28;20223;-29
2023/01/12 04:27:27;;;;;;;18.57;2.90;;;11.60;99.90;;;;;;5048439;28;20240;-29
2023/01/12 04:29:59;;;;;;;19.83;3.43;;;11.60;99.90;;;;;;5048178;28;20283;-29
2023/01/12 04:32:29;;;;;;;14.47;2.53;;;11.60;99.90;;;;;;5046627;28;20313;-30
2023/01/12 04:34:59;;;;;;;15.17;3.23;;;11.60;99.90;;;;;;5048149;28;20570;-30
2023/01/12 04:37:26;;;;;;;15.27;2.93;;;11.60;99.90;;;;;;5047109;28;20216;-30
2023/01/12 04:39:54;;;;;;;11.33;2.17;;;11.60;99.90;;;;;;5048057;28;20231;-29
2023/01/12 04:45:08;;;;;;;12.13;2.93;;;11.60;99.90;;;;;;5047843;28;20242;-30
2023/01/12 04:47:35;;;;;;;16.07;3.00;;;11.60;99.90;;;;;;5047523;28;20287;-30
2023/01/12 04:50:03;;;;;;;17.73;3.00;;;11.60;99.90;;;;;;5048020;28;20231;-30
2023/01/12 04:52:33;;;;;;;13.03;2.43;;;11.60;99.90;;;;;;5047583;28;20786;-30
2023/01/12 04:55:03;;;;;;;14.00;2.20;;;11.50;99.90;;;;;;5047662;28;20683;-30
2023/01/12 04:57:33;;;;;;;14.03;2.93;;;11.60;99.90;;;;;;5048008;28;20392;-29
2023/01/12 05:00:01;;;;;;;12.70;2.50;;;11.60;99.90;;;;;;5047548;28;20200;-30
2023/01/12 05:02:30;;;;;;;12.40;2.90;;;11.60;99.90;;;;;;5045983;28;20220;-30
2023/01/12 05:04:58;;;;;;;11.03;2.70;;;11.60;99.90;;;;;;5046114;28;20278;-30
2023/01/12 05:07:25;;;;;;;11.13;2.50;;;11.60;99.90;;;;;;5047956;28;20239;-30
2023/01/12 05:12:40;;;;;;;11.50;2.10;;;11.60;99.90;;;;;;5047481;28;20293;-29
2023/01/12 05:15:08;;;;;;;12.17;2.57;;;11.60;99.90;;;;;;5045998;28;20681;-29
2023/01/12 05:17:37;;;;;;;8.47;1.93;;;11.60;99.90;;;;;;5047436;28;20565;-29
2023/01/12 05:20:08;;;;;;;13.90;2.50;;;11.50;99.90;;;;;;5045945;28;20231;-29
2023/01/12 05:22:37;;;;;;;9.33;1.97;;;11.60;99.90;;;;;;5047286;28;20204;-29
2023/01/12 05:25:07;;;;;;;14.23;2.37;;;11.60;99.90;;;;;;5046878;28;20691;-29
2023/01/12 05:27:38;;;;;;;10.00;1.60;;;11.60;99.90;;;;;;5047234;28;20201;-29
2023/01/12 05:30:08;;;;;;;14.67;2.27;;;11.60;99.90;;;;;;5047259;28;20240;-30
2023/01/12 05:32:37;;;;;;;8.90;2.20;;;11.60;99.90;;;;;;5047200;28;20697;-29
2023/01/12 05:35:06;;;;;;;8.10;1.50;;;11.60;99.90;;;;;;5047088;28;20258;-29
2023/01/12 05:37:36;;;;;;;8.00;1.73;;;11.50;99.90;;;;;;5046680;28;20227;-29
2023/01/12 05:40:04;;;;;;;9.10;2.00;;;11.60;99.90;;;;;;5047347;28;20197;-33
2023/01/12 05:45:19;;;;;;;10.17;2.37;;;11.60;99.90;;;;;;5046721;28;20727;-29
2023/01/12 05:47:47;;;;;;;8.17;1.97;;;11.60;99.90;;;;;;5045395;28;20208;-29
2023/01/12 05:50:16;;;;;;;7.10;1.67;;;11.70;99.90;;;;;;5046718;28;20657;-29
2023/01/12 05:52:43;;;;;;;9.37;1.97;;;11.70;99.90;;;;;;5045195;28;20343;-29
2023/01/12 05:55:10;;;;;;;7.87;1.73;;;11.60;99.90;;;;;;5046795;28;20243;-29
2023/01/12 05:57:38;;;;;;;8.17;2.10;;;11.50;99.90;;;;;;5046600;28;20216;-29
2023/01/12 06:00:08;;;;;;;7.30;1.73;;;11.60;99.90;;;;;;5046084;28;20204;-29
2023/01/12 06:02:38;;;;;;;7.40;1.80;;;11.70;99.90;;;;;;5046540;28;20204;-29
2023/01/12 06:05:08;;;;;;;10.30;2.03;;;11.70;99.90;;;;;;5046657;28;20301;-29
2023/01/12 06:07:38;;;;;;;13.80;2.43;;;11.70;99.90;;;;;;5045051;28;20690;-29
2023/01/12 06:10:06;;;;;;;7.77;2.03;;;11.70;99.90;;;;;;5046382;28;20206;-29
2023/01/12 06:15:21;;;;;;;9.37;1.93;;;11.70;99.90;;;;;;5045036;28;20709;-29
2023/01/12 06:17:55;;;;;;;10.17;2.07;;;11.70;99.90;;;;;;5046475;28;20679;-29
2023/01/12 06:20:24;;;;;;;7.47;1.83;;;11.70;99.90;;;;;;5047480;28;20204;-29
2023/01/12 06:22:51;;;;;;;7.33;1.30;;;11.70;99.90;;;;;;5046716;28;20200;-29
2023/01/12 06:25:18;;;;;;;6.00;1.43;;;11.70;99.90;;;;;;5046654;28;20251;-29
2023/01/12 06:27:45;;;;;;;8.17;1.40;;;11.70;99.90;;;;;;5046794;28;20305;-29
2023/01/12 06:30:15;;;;;;;8.20;1.43;;;11.70;99.90;;;;;;5046453;28;20239;-29
2023/01/12 06:32:42;;;;;;;8.57;1.50;;;11.70;99.90;;;;;;5046280;28;20192;-29
2023/01/12 06:35:10;;;;;;;12.63;2.27;;;11.80;99.90;;;;;;5045180;28;20208;-29
2023/01/12 06:37:45;;;;;;;9.47;1.60;;;11.70;99.90;;;;;;5046463;28;20276;-29
2023/01/12 06:40:13;;;;;;;5.93;1.53;;;11.70;99.90;;;;;;5046745;28;20223;-29
2023/01/12 06:42:40;;;;;;;4.87;1.40;;;11.70;99.90;;;;;;5046350;28;20302;-29
2023/01/12 06:45:11;;;;;;;7.70;1.70;;;11.70;99.90;;;;;;5046212;28;20242;-29
2023/01/12 06:47:46;;;;;;;9.13;1.77;;;11.80;99.90;;;;;;5046570;28;20660;-29
2023/01/12 06:50:15;;;;;;;7.63;2.13;;;11.80;99.90;;;;;;5046437;28;20678;-29
2023/01/12 06:52:45;;;;;;;9.73;1.77;;;11.90;99.90;;;;;;5046468;28;20236;-29
2023/01/12 06:55:12;;;;;;;10.87;2.00;;;11.90;99.90;;;;;;5046598;28;20249;-29
2023/01/12 06:57:40;;;;;;;8.00;2.07;;;11.80;99.90;;;;;;5046123;28;20314;-29
2023/01/12 07:00:13;;;;;;;6.80;1.90;;;11.80;99.90;;;;;;5046545;28;20287;-29
2023/01/12 07:02:40;;;;;;;7.53;1.80;;;11.90;99.90;;;;;;5045993;28;20192;-30
2023/01/12 07:05:09;;;;;;;4.47;1.50;;;11.90;99.90;;;;;;5046344;28;20302;-30
2023/01/12 07:07:37;;;;;;;6.43;1.70;;;11.90;99.90;;;;;;5044692;28;20639;-30
2023/01/12 07:10:07;;;;;;;6.83;1.63;;;11.90;99.90;;;;;;5046441;28;20227;-30
2023/01/12 07:12:37;;;;;;;8.10;1.80;;;12.00;99.90;;;;;;5049840;28;20230;-30
2023/01/12 07:15:05;;;;;;;6.57;2.40;;;11.90;99.90;;;;;;5050130;28;20208;-30
2023/01/12 07:17:34;;;;;;;7.33;1.50;;;12.00;99.90;;;;;;5049914;28;20740;-30
2023/01/12 07:20:02;;;;;;;8.40;1.90;;;12.00;99.90;;;;;;5048225;28;20204;-30
2023/01/12 07:22:32;;;;;;;9.40;2.03;;;12.00;99.90;;;;;;5048530;28;20224;-30
2023/01/12 07:24:59;;;;;;;12.63;2.20;;;12.00;99.90;;;;;;5048455;28;20211;-30
2023/01/12 07:27:26;;;;;;;8.00;2.23;;;12.00;99.90;;;;;;5049870;28;20296;-30
2023/01/12 07:29:55;;;;;;;10.83;2.10;;;12.00;99.90;;;;;;5049760;28;20628;-30
2023/01/12 07:32:25;;;;;;;7.87;1.77;;;12.00;99.90;;;;;;5048579;28;20296;-30
2023/01/12 07:34:52;;;;;;;10.03;2.10;;;12.10;99.90;;;;;;5048421;28;20254;-30
2023/01/12 07:37:24;;;;;;;6.80;2.07;;;12.10;99.90;;;;;;5048218;28;20287;-30
2023/01/12 07:39:53;;;;;;;8.33;2.07;;;12.10;99.90;;;;;;5049548;28;20747;-30
2023/01/12 07:42:23;;;;;;;10.27;1.60;;;12.00;99.90;;;;;;5049949;28;20303;-30
2023/01/12 07:44:51;;;;;;;6.40;1.57;;;12.00;99.90;;;;;;5049396;28;20307;-30
2023/01/12 07:47:18;;;;;;;13.07;2.50;;;12.00;99.90;;;;;;5049167;28;20317;-30
2023/01/12 07:49:45;;;;;;;5.67;2.00;;;12.10;99.90;;;;;;5049471;28;20208;-30
2023/01/12 07:52:15;;;;;;;9.20;2.63;;;12.10;99.90;;;;;;5049228;28;20699;-30
2023/01/12 07:54:42;;;;;;;11.33;2.70;;;12.10;99.90;;;;;;5049365;28;20208;-30
2023/01/12 07:57:10;;;;;;;6.37;2.80;;;12.10;99.90;;;;;;5049379;28;20212;-30
2023/01/12 07:59:38;;;;;;;5.10;2.23;;;12.10;99.90;;;;;;5049331;28;20686;-30
2023/01/12 08:02:15;;;;;;;9.37;2.70;;;12.10;99.90;;;;;;5048214;28;20200;-30
2023/01/12 08:04:43;;;;;;;9.73;2.10;;;12.20;99.90;;;;;;5049665;28;20254;-30
2023/01/12 08:07:18;;;;;;;7.30;2.40;;;12.10;99.90;;;;;;5049379;28;20273;-30
2023/01/12 08:09:45;;;;;;;9.60;2.70;;;12.10;99.90;;;;;;5049112;28;20324;-30
2023/01/12 08:12:15;;;;;;;11.70;2.50;;;12.20;99.90;;;;;;5048842;28;20208;-30
2023/01/12 08:14:44;;;;;;;10.93;2.23;;;12.20;99.90;;;;;;5049566;28;20239;-31
2023/01/12 08:17:16;;;;;;;8.33;2.07;;;12.10;99.90;;;;;;5048791;28;20236;-32
2023/01/12 08:19:55;;;;;;;9.87;2.07;;;12.10;99.90;;;;;;5049335;28;20210;-32
2023/01/12 08:22:30;;;;;;;12.10;2.37;;;12.20;99.90;;;;;;5048178;28;20212;-33
2023/01/12 08:25:17;;;;;;;9.53;1.80;;;12.10;99.90;;;;;;5049038;28;20200;-33
2023/01/12 08:27:50;;;;;;;8.60;2.60;;;12.10;99.90;;;;;;5048948;28;20664;-32
2023/01/12 08:30:20;;;;;;;5.60;1.57;;;12.10;99.90;;;;;;5048871;28;20204;-32
2023/01/12 08:32:56;;;;;;;5.87;1.43;;;12.20;99.90;;;;;;5048470;28;20576;-32
2023/01/12 08:35:27;;;;;;;8.77;1.80;;;12.20;99.90;;;;;;5047516;28;20232;-33
2023/01/12 08:37:55;;;;;;;5.97;1.50;;;12.20;99.90;;;;;;5047157;28;20192;-32
2023/01/12 08:40:23;;;;;;;4.63;1.30;;;12.20;99.90;;;;;;5048533;28;20243;-33
2023/01/12 08:42:51;;;;;;;7.40;1.70;;;12.30;99.90;;;;;;5048470;28;20201;-32
2023/01/12 08:45:20;;;;;;;5.20;1.80;;;12.20;99.90;;;;;;5048620;28;20204;-33
2023/01/12 08:47:52;;;;;;;9.60;1.83;;;12.30;99.90;;;;;;5046946;28;20200;-33
2023/01/12 08:50:19;;;;;;;3.67;1.50;;;12.30;99.90;;;;;;5048332;28;20307;-32
2023/01/12 08:52:48;;;;;;;9.33;2.23;;;12.20;99.90;;;;;;5047630;28;20240;-33
2023/01/12 08:55:18;;;;;;;7.53;1.67;;;12.30;99.90;;;;;;5047858;28;20292;-33
2023/01/12 08:57:50;;;;;;;6.50;1.47;;;12.30;99.90;;;;;;5047998;28;20269;-32
2023/01/12 09:00:21;;;;;;;5.10;1.63;;;12.30;99.90;;;;;;5047956;28;20203;-33
2023/01/12 09:02:48;;;;;;;7.93;1.60;;;12.30;99.90;;;;;;5048322;28;20212;-33
2023/01/12 09:05:15;;;;;;;10.43;1.73;;;12.40;99.90;;;;;;5046778;28;20220;-32
2023/01/12 09:07:43;;;;;;;5.97;1.93;;;12.40;99.90;;;;;;5046196;28;20274;-32
2023/01/12 09:10:12;;;;;;;9.40;1.60;;;12.40;99.90;;;;;;5047864;28;20649;-33
2023/01/12 09:12:39;;;;;;;6.57;1.07;;;12.40;99.90;;;;;;5047815;28;20197;-32
2023/01/12 09:15:07;;;;;;;5.87;1.37;;;12.40;99.90;;;;;;5046373;28;20563;-33
2023/01/12 09:17:34;;;;;;;6.50;1.50;;;12.50;99.90;;;;;;5047777;28;20211;-33
2023/01/12 09:20:02;;;;;;;6.23;1.30;;;12.50;99.90;;;;;;5047785;28;20690;-33
2023/01/12 09:22:31;;;;;;;5.33;1.40;;;12.50;99.90;;;;;;5047619;28;20514;-33
2023/01/12 09:24:59;;;;;;;8.97;1.83;;;12.50;99.90;;;;;;5047390;28;20567;-33
2023/01/12 09:27:28;;;;;;;6.97;1.47;;;12.50;99.90;;;;;;5047579;28;20319;-32
2023/01/12 09:29:55;;;;;;;5.77;1.50;;;12.50;99.90;;;;;;5047357;28;20224;-31
2023/01/12 09:32:22;;;;;;;9.23;3.03;;;12.60;99.90;;;;;;5047286;28;20211;-32
2023/01/12 09:35:02;;;;;;;5.10;1.40;;;12.60;99.90;;;;;;5046237;28;20629;-32
2023/01/12 09:37:29;;;;;;;5.27;1.60;;;12.60;99.90;;;;;;5047868;28;20207;-31
2023/01/12 09:39:59;;;;;;;9.43;2.07;;;12.60;99.90;;;;;;5047448;28;20211;-32
2023/01/12 09:48:13;;;;;;;3.00;1.07;;;12.60;99.90;;;;;;5047338;28;20208;-32
2023/01/12 09:50:49;;;;;;;6.20;1.50;;;12.60;99.90;;;;;;5047313;28;20230;-32
2023/01/12 09:53:27;;;;;;;8.23;1.93;;;12.60;99.90;;;;;;5047182;28;20519;-34
2023/01/12 09:56:03;;;;;;;13.27;1.60;;;12.60;99.90;;;;;;5046914;28;20200;-33
2023/01/12 09:58:38;;;;;;;12.30;2.03;;;12.70;99.90;;;;;;5047130;28;20302;-34
2023/01/12 10:01:14;;;;;;;10.13;1.53;;;12.60;99.90;;;;;;5047107;28;20206;-34
2023/01/12 10:03:57;;;;;;;15.20;2.30;;;12.60;99.90;;;;;;5047622;28;20659;-34
2023/01/12 10:06:24;;;;;;;7.43;1.87;;;12.60;99.90;;;;;;5047125;28;20620;-33
2023/01/12 10:08:55;;;;;;;8.50;2.37;;;12.60;99.90;;;;;;5046471;28;20307;-34
2023/01/12 10:11:35;;;;;;;12.33;2.03;;;12.60;99.90;;;;;;5046418;28;20499;-34
2023/01/12 10:14:24;;;;;;;14.47;2.90;;;12.60;99.90;;;;;;5046219;28;20204;-32
2023/01/12 10:17:03;;;;;;;16.30;2.03;;;12.70;99.90;;;;;;5046095;28;20239;-33
2023/01/12 10:19:57;;;;;;;17.70;3.07;;;12.70;99.90;;;;;;5046071;28;20242;-34
2023/01/12 10:22:38;;;;;;;18.37;2.50;;;12.70;99.90;;;;;;5046011;28;20299;-33
2023/01/12 10:25:33;;;;;;;19.20;2.63;;;12.70;99.90;;;;;;5029894;28;20208;-33
2023/01/12 10:28:15;;;;;;;6.57;1.50;;;12.80;99.90;;;;;;5046132;28;20224;-33
2023/01/12 10:30:46;;;;;;;10.60;2.30;;;12.80;99.90;;;;;;5046198;28;20204;-33
2023/01/12 10:33:21;;;;;;;15.40;2.60;;;12.80;99.90;;;;;;5045858;28;20706;-32
2023/01/12 10:36:08;;;;;;;8.97;2.07;;;12.80;99.90;;;;;;5046010;28;20202;-32
2023/01/12 10:38:38;;;;;;;5.30;1.60;;;12.80;99.90;;;;;;5045811;28;20204;-32
2023/01/12 10:41:11;;;;;;;20.93;2.10;;;12.80;99.90;;;;;;5045878;28;20224;-33
2023/01/12 10:43:43;;;;;;;4.37;1.20;;;12.90;99.90;;;;;;5044350;28;20733;-32
2023/01/12 10:46:13;;;;;;;11.10;2.00;;;12.90;99.90;;;;;;5045609;28;20250;-32
2023/01/12 10:48:43;;;;;;;16.30;1.90;;;12.90;99.90;;;;;;5045898;28;20755;-32
2023/01/12 10:51:35;;;;;;;12.57;2.57;;;12.90;99.90;;;;;;5044190;28;20207;-32
2023/01/12 10:54:16;;;;;;;13.63;2.23;;;12.90;99.90;;;;;;5046150;28;20206;-33
2023/01/12 10:57:03;;;;;;;7.90;1.80;;;12.90;99.90;;;;;;5044200;28;20705;-32
2023/01/12 10:59:38;;;;;;;9.63;2.30;;;12.90;99.90;;;;;;5045912;28;20254;-33
2023/01/12 11:02:08;;;;;;;9.33;2.20;;;12.90;99.90;;;;;;5046026;28;20223;-32
2023/01/12 11:04:45;;;;;;;8.47;1.87;;;12.90;99.90;;;;;;5045407;28;20208;-33
2023/01/12 11:07:14;;;;;;;13.60;2.37;;;12.90;99.90;;;;;;5045961;28;20580;-33
2023/01/12 11:09:44;;;;;;;12.20;1.93;;;12.90;99.90;;;;;;5045725;28;20220;-32
2023/01/12 11:12:19;;;;;;;7.63;1.40;;;12.90;99.90;;;;;;5045498;28;20753;-32
2023/01/12 11:15:17;;;;;;;13.23;1.93;;;12.90;99.90;;;;;;5045369;28;20200;-32
2023/01/12 11:18:23;;;;;;;14.27;1.97;;;12.90;99.90;;;;;;5044996;28;20627;-33
2023/01/12 11:21:01;;;;;;;7.03;1.57;;;12.90;99.90;;;;;;5044863;28;20270;-32
2023/01/12 11:23:50;;;;;;;8.63;2.10;;;12.90;99.90;;;;;;5045507;28;20619;-33
2023/01/12 11:26:27;;;;;;;4.97;1.00;;;12.90;99.90;;;;;;5045388;28;20215;-32
2023/01/12 11:29:01;;;;;;;3.97;1.27;;;12.90;99.90;;;;;;5045215;28;20235;-32
2023/01/12 11:31:40;;;;;;;3.77;1.10;;;12.90;99.90;;;;;;5044245;28;20195;-33
2023/01/12 11:34:15;;;;;;;3.13;1.10;;;12.90;99.90;;;;;;5045872;28;20192;-33
2023/01/12 11:36:50;;;;;;;2.20;0.77;;;12.90;99.90;;;;;;5044825;28;20219;-32
2023/01/12 11:39:29;;;;;;;2.43;0.90;;;13.00;99.90;;;;;;5045977;28;20338;-32
2023/01/12 11:45:03;;;;;;;3.73;1.00;;;12.80;99.90;;;;;;5046195;28;20192;-33
2023/01/12 11:47:38;;;;;;;4.47;0.90;;;12.90;99.90;;;;;;5046059;28;20586;-32
2023/01/12 11:50:24;;;;;;;3.10;1.23;;;12.90;99.90;;;;;;5044541;28;20215;-32
2023/01/12 11:52:57;;;;;;;3.03;0.73;;;12.90;99.90;;;;;;5043825;28;20236;-33
2023/01/12 11:55:27;;;;;;;4.60;1.67;;;12.90;99.90;;;;;;5044275;28;20244;-33
2023/01/12 11:58:26;;;;;;;2.63;0.80;;;12.90;99.90;;;;;;5046527;28;20211;-32
2023/01/12 12:01:19;;;;;;;3.43;1.00;;;12.90;99.90;;;;;;5049103;28;20307;-32
2023/01/12 12:03:58;;;;;;;1.77;0.73;;;12.90;99.90;;;;;;5049508;28;20247;-32
2023/01/12 12:06:50;;;;;;;2.97;0.90;;;12.90;99.90;;;;;;5049580;28;20247;-32
2023/01/12 12:09:29;;;;;;;3.90;0.90;;;12.90;99.90;;;;;;5049259;28;20733;-33
2023/01/12 12:12:01;;;;;;;2.37;0.80;;;12.90;99.90;;;;;;5049398;28;20231;-32
2023/01/12 12:15:11;;;;;;;2.90;1.00;;;12.90;99.90;;;;;;5049371;28;20279;-32
2023/01/12 12:17:49;;;;;;;4.30;0.83;;;12.90;99.90;;;;;;5048802;28;20208;-32
2023/01/12 12:20:43;;;;;;;2.07;0.80;;;13.00;99.90;;;;;;5046935;28;20651;-32
2023/01/12 12:23:51;;;;;;;4.33;1.00;;;13.00;99.90;;;;;;5048453;28;20258;-32
2023/01/12 12:26:25;;;;;;;2.53;0.80;;;12.90;99.90;;;;;;5047074;28;20208;-33
2023/01/12 12:29:22;;;;;;;2.77;1.03;;;13.00;99.90;;;;;;5048886;28;20230;-33
2023/01/12 12:32:18;;;;;;;2.87;0.63;;;12.90;99.90;;;;;;5048841;28;20239;-32
2023/01/12 12:34:54;;;;;;;4.07;1.00;;;12.90;99.90;;;;;;5036884;28;20200;-33
2023/01/12 12:37:44;;;;;;;4.73;0.70;;;12.90;99.90;;;;;;5047130;28;20200;-33
2023/01/12 12:45:15;;;;;;;3.03;0.80;;;13.00;99.90;;;;;;5048790;28;20236;-33
2023/01/12 12:46:36;;;;;;;6.63;0.87;;;12.90;99.90;;;;;;5048403;28;20586;-32
2023/01/12 12:49:15;;;;;;;2.63;0.90;;;12.90;99.90;;;;;;5047916;28;20948;-32
2023/01/12 12:51:44;;;;;;;2.57;0.70;;;13.00;99.90;;;;;;5047907;28;20227;-32
2023/01/12 12:54:20;;;;;;;0.83;0.60;;;13.10;99.90;;;;;;5047895;28;20215;-32
2023/01/12 12:56:48;;;;;;;3.50;0.90;;;13.00;99.90;;;;;;5047915;28;20217;-32
2023/01/12 12:59:50;;;;;;;2.67;0.97;;;13.00;99.90;;;;;;5046062;28;20212;-32
2023/01/12 13:02:53;;;;;;;2.00;0.80;;;13.00;99.90;;;;;;5046470;28;20277;-32
2023/01/12 13:05:41;;;;;;;2.87;0.90;;;13.00;99.90;;;;;;5047921;28;20326;-32
2023/01/12 13:08:26;;;;;;;2.63;0.73;;;13.10;99.90;;;;;;5047478;28;20231;-32
2023/01/12 13:10:57;;;;;;;1.77;0.80;;;13.10;99.90;;;;;;5045951;28;20329;-32
2023/01/12 13:13:31;;;;;;;1.07;0.70;;;13.00;99.90;;;;;;5046227;28;20196;-32
2023/01/12 13:16:16;;;;;;;4.63;1.10;;;13.10;99.90;;;;;;5045545;28;20295;-32
2023/01/12 13:18:49;;;;;;;3.80;0.93;;;13.10;99.90;;;;;;5047748;28;20204;-32
2023/01/12 13:21:29;;;;;;;3.43;1.00;;;13.10;99.90;;;;;;5047820;28;20208;-32
2023/01/12 13:24:09;;;;;;;3.40;1.00;;;13.10;99.90;;;;;;5047394;28;20230;-32
2023/01/12 13:26:43;;;;;;;4.73;1.10;;;13.10;99.90;;;;;;5047504;28;20619;-32
2023/01/12 13:29:39;;;;;;;3.90;0.97;;;13.20;99.90;;;;;;5047155;28;20219;-33
2023/01/12 13:32:32;;;;;;;2.83;1.00;;;13.20;99.90;;;;;;5046613;28;20227;-32
2023/01/12 13:34:59;;;;;;;1.90;0.70;;;13.20;99.90;;;;;;5047309;28;20200;-32
2023/01/12 13:37:37;;;;;;;2.93;0.90;;;13.20;99.90;;;;;;5047094;28;20202;-32
2023/01/12 13:40:18;;;;;;;3.33;0.93;;;13.10;99.90;;;;;;5047294;28;20257;-32
2023/01/12 13:45:35;;;;;;;1.90;0.90;;;13.10;99.90;;;;;;5047001;28;20211;-32
2023/01/12 13:48:06;;;;;;;1.90;0.90;;;13.00;99.90;;;;;;5045280;28;20232;-32
2023/01/12 13:50:35;;;;;;;4.33;0.90;;;13.10;99.90;;;;;;5046669;28;20208;-32
2023/01/12 13:53:04;;;;;;;1.60;0.80;;;13.10;99.90;;;;;;5045157;28;20239;-33